La plateforme de Tours Sorigny

[wp_mapbox_gl_js map_id= »822″]


Adresse :

Aérodrome de Tours-Sorigny

RD 910

37250 SORIGNY


Carte VAC :

https://www.sia.aviation-civile.gouv.fr/dvd/eAIP_19_JUL_2018/Atlas-VAC/PDF_AIPparSSection/VAC/AD/AD-2.LFEN.pdf

METAR / TAF:

LFOT 210830Z AUTO 08008KT CAVOK 15/08 Q1018 NOSIG

TAF LFOT 210500Z 2106/2206 VRB03KT CAVOK TEMPO 2116/2124 SCT060TCU PROB30 TEMPO 2118/2122 VRB12G25KT -TSRA BKN060CB